createdAt,value
2023-01-18T00:01:01.791Z,27.20
2023-01-18T00:03:28.903Z,29.97
2023-01-18T00:05:56.157Z,32.13
2023-01-18T00:08:23.107Z,30.03
2023-01-18T00:10:50.355Z,29.27
2023-01-18T00:13:17.287Z,32.00
2023-01-18T00:15:44.567Z,29.63
2023-01-18T00:18:11.641Z,30.63
2023-01-18T00:20:38.896Z,33.53
2023-01-18T00:23:05.802Z,35.23
2023-01-18T00:25:33.187Z,28.67
2023-01-18T00:28:00.207Z,32.70
2023-01-18T00:30:28.618Z,30.27
2023-01-18T00:32:58.272Z,29.50
2023-01-18T00:35:26.629Z,28.73
2023-01-18T00:37:54.342Z,28.87
2023-01-18T00:40:22.815Z,31.00
2023-01-18T00:43:08.535Z,28.53
2023-01-18T00:45:35.908Z,27.90
2023-01-18T00:48:03.685Z,29.03
2023-01-18T00:50:30.943Z,28.10
2023-01-18T00:53:00.175Z,29.07
2023-01-18T00:55:27.869Z,29.10
2023-01-18T00:57:55.151Z,30.40
2023-01-18T01:00:23.732Z,30.23
2023-01-18T01:02:51.763Z,29.93
2023-01-18T01:05:40.632Z,30.57
2023-01-18T01:08:07.809Z,29.73
2023-01-18T01:10:35.707Z,29.23
2023-01-18T01:13:21.789Z,30.73
2023-01-18T01:16:07.735Z,26.57
2023-01-18T01:18:53.296Z,26.30
2023-01-18T01:21:39.247Z,27.33
2023-01-18T01:24:24.979Z,29.53
2023-01-18T01:26:52.299Z,28.60
2023-01-18T01:29:19.213Z,27.27
2023-01-18T01:31:46.428Z,26.53
2023-01-18T01:34:13.576Z,25.17
2023-01-18T01:36:40.871Z,25.03
2023-01-18T01:39:10.904Z,25.57
2023-01-18T01:41:38.725Z,25.17
2023-01-18T01:44:17.950Z,23.57
2023-01-18T01:46:56.058Z,25.00
2023-01-18T01:49:52.652Z,24.10
2023-01-18T01:52:28.673Z,24.97
2023-01-18T01:55:28.452Z,23.53
2023-01-18T01:58:21.045Z,24.63
2023-01-18T02:00:48.251Z,24.93
2023-01-18T02:03:20.535Z,23.30
2023-01-18T02:05:51.088Z,24.53
2023-01-18T02:08:22.490Z,23.90
2023-01-18T02:10:50.568Z,23.60
2023-01-18T02:13:19.489Z,24.73
2023-01-18T02:16:13.901Z,24.37
2023-01-18T02:18:54.645Z,23.73
2023-01-18T02:21:39.502Z,23.80
2023-01-18T02:24:18.642Z,23.67
2023-01-18T02:27:20.526Z,23.60
2023-01-18T02:30:16.132Z,21.67
2023-01-18T02:33:15.563Z,22.50
2023-01-18T02:35:47.167Z,21.20
2023-01-18T02:38:21.610Z,20.93
2023-01-18T02:41:00.544Z,21.70
2023-01-18T02:43:47.057Z,21.80
2023-01-18T02:46:35.734Z,22.63
2023-01-18T02:49:10.840Z,22.33
2023-01-18T02:51:38.646Z,21.73
2023-01-18T02:54:09.750Z,21.03
2023-01-18T02:56:47.515Z,19.13
2023-01-18T02:59:28.614Z,20.07
2023-01-18T03:01:57.412Z,22.97
2023-01-18T03:04:33.530Z,19.97
2023-01-18T03:07:24.321Z,17.97
2023-01-18T03:09:51.978Z,19.13
2023-01-18T03:12:48.027Z,18.20
2023-01-18T03:15:41.719Z,18.67
2023-01-18T03:18:38.379Z,19.93
2023-01-18T03:21:08.460Z,20.90
2023-01-18T03:23:40.136Z,20.77
2023-01-18T03:26:17.306Z,20.00
2023-01-18T03:29:12.427Z,21.70
2023-01-18T03:32:06.266Z,20.03
2023-01-18T03:34:46.510Z,21.50
2023-01-18T03:37:28.710Z,19.80
2023-01-18T03:40:03.612Z,20.23
2023-01-18T03:42:45.843Z,20.97
2023-01-18T03:45:20.702Z,20.97
2023-01-18T03:47:50.321Z,17.80
2023-01-18T03:50:18.211Z,18.57
2023-01-18T03:52:48.768Z,18.63
2023-01-18T03:55:24.230Z,19.80
2023-01-18T03:58:09.528Z,18.87
2023-01-18T04:00:40.790Z,16.50
2023-01-18T04:03:08.251Z,16.70
2023-01-18T04:05:36.126Z,17.83
2023-01-18T04:08:03.238Z,16.30
2023-01-18T04:10:30.507Z,17.10
2023-01-18T04:12:58.036Z,17.37
2023-01-18T04:15:25.386Z,19.53
2023-01-18T04:17:55.931Z,16.13
2023-01-18T04:20:23.792Z,18.13
2023-01-18T04:22:54.801Z,18.47
2023-01-18T04:25:22.548Z,18.17
2023-01-18T04:27:49.488Z,17.00
2023-01-18T04:30:17.122Z,16.83
2023-01-18T04:32:46.224Z,16.57
2023-01-18T04:35:14.200Z,14.00
2023-01-18T04:37:41.431Z,14.90
2023-01-18T04:40:09.455Z,15.27
2023-01-18T04:42:36.416Z,15.17
2023-01-18T04:45:03.768Z,13.40
2023-01-18T04:47:30.698Z,15.07
2023-01-18T04:49:58.029Z,15.00
2023-01-18T04:52:26.801Z,15.10
2023-01-18T04:54:54.145Z,15.17
2023-01-18T04:57:21.095Z,14.73
2023-01-18T04:59:48.271Z,14.97
2023-01-18T05:02:15.453Z,16.33
2023-01-18T05:04:43.825Z,16.40
2023-01-18T05:07:11.651Z,15.00
2023-01-18T05:09:38.916Z,15.77
2023-01-18T05:12:06.011Z,15.77
2023-01-18T05:14:33.602Z,17.17
2023-01-18T05:17:00.704Z,16.10
2023-01-18T05:19:30.502Z,15.63
2023-01-18T05:21:57.517Z,18.20
2023-01-18T05:24:24.926Z,16.63
2023-01-18T05:26:51.848Z,16.77
2023-01-18T05:29:19.067Z,17.07
2023-01-18T05:31:46.148Z,17.57
2023-01-18T05:34:13.412Z,17.63
2023-01-18T05:36:40.408Z,19.53
2023-01-18T05:39:09.306Z,16.10
2023-01-18T05:41:36.299Z,18.23
2023-01-18T05:44:03.815Z,17.97
2023-01-18T05:46:30.824Z,18.40
2023-01-18T05:48:58.927Z,14.57
2023-01-18T05:51:25.993Z,18.23
2023-01-18T05:53:53.275Z,17.70
2023-01-18T05:56:20.229Z,18.80
2023-01-18T05:58:47.464Z,19.07
2023-01-18T06:01:14.554Z,16.47
2023-01-18T06:03:41.979Z,16.17
2023-01-18T06:06:08.922Z,16.57
2023-01-18T06:08:36.406Z,17.03
2023-01-18T06:11:04.557Z,14.60
2023-01-18T06:13:32.787Z,13.33
2023-01-18T06:16:00.965Z,12.37
2023-01-18T06:18:32.805Z,14.40
2023-01-18T06:21:01.910Z,14.07
2023-01-18T06:23:30.417Z,15.43
2023-01-18T06:25:57.823Z,15.47
2023-01-18T06:28:25.136Z,12.23
2023-01-18T06:30:55.555Z,14.40
2023-01-18T06:33:24.303Z,14.27
2023-01-18T06:35:52.274Z,12.03
2023-01-18T06:38:20.707Z,11.70
2023-01-18T06:40:47.673Z,15.10
2023-01-18T06:43:16.021Z,12.23
2023-01-18T06:45:43.081Z,11.73
2023-01-18T06:48:10.377Z,13.33
2023-01-18T06:50:37.362Z,10.73
2023-01-18T06:53:04.630Z,10.53
2023-01-18T06:55:31.594Z,12.90
2023-01-18T06:57:58.810Z,12.70
2023-01-18T07:00:25.873Z,10.93
2023-01-18T07:02:53.217Z,9.67
2023-01-18T07:05:20.561Z,11.97
2023-01-18T07:07:47.930Z,8.93
2023-01-18T07:10:16.636Z,11.03
2023-01-18T07:12:48.575Z,9.67
2023-01-18T07:15:21.940Z,9.63
2023-01-18T07:17:50.867Z,8.73
2023-01-18T07:20:19.905Z,7.57
2023-01-18T07:22:51.965Z,8.97
2023-01-18T07:25:20.750Z,7.97
2023-01-18T07:27:49.153Z,8.17
2023-01-18T07:30:16.661Z,8.93
2023-01-18T07:32:52.097Z,8.50
2023-01-18T07:35:22.228Z,8.93
2023-01-18T07:37:52.306Z,8.10
2023-01-18T07:40:21.442Z,7.30
2023-01-18T07:42:50.052Z,8.13
2023-01-18T07:45:17.183Z,6.30
2023-01-18T07:47:46.282Z,8.13
2023-01-18T07:50:14.394Z,7.60
2023-01-18T07:52:42.046Z,7.17
2023-01-18T07:55:09.520Z,6.83
2023-01-18T07:57:36.825Z,6.83
2023-01-18T08:00:07.178Z,6.50
2023-01-18T08:02:35.304Z,6.77
2023-01-18T08:05:03.750Z,6.33
2023-01-18T08:07:33.925Z,5.70
2023-01-18T08:10:00.979Z,5.83
2023-01-18T08:12:28.490Z,5.30
2023-01-18T08:14:55.503Z,6.53
2023-01-18T08:17:22.766Z,5.83
2023-01-18T08:19:49.742Z,6.37
2023-01-18T08:22:16.955Z,5.20
2023-01-18T08:24:43.985Z,5.83
2023-01-18T08:27:11.262Z,6.20
2023-01-18T08:29:38.238Z,5.10
2023-01-18T08:32:05.587Z,5.47
2023-01-18T08:34:32.584Z,5.30
2023-01-18T08:36:59.832Z,4.63
2023-01-18T08:39:26.897Z,4.97
2023-01-18T08:41:54.114Z,5.40
2023-01-18T08:44:21.131Z,6.00
2023-01-18T08:46:48.380Z,5.30
2023-01-18T08:49:16.215Z,5.00
2023-01-18T08:51:43.486Z,5.13
2023-01-18T08:54:10.426Z,5.87
2023-01-18T08:56:37.724Z,4.80
2023-01-18T08:59:08.812Z,4.83
2023-01-18T09:01:36.269Z,4.10
2023-01-18T09:04:03.394Z,4.87
2023-01-18T09:06:32.317Z,3.93
2023-01-18T09:08:59.918Z,4.17
2023-01-18T09:11:27.208Z,4.47
2023-01-18T09:14:00.804Z,4.50
2023-01-18T09:16:30.012Z,3.80
2023-01-18T09:18:58.414Z,4.10
2023-01-18T09:21:28.074Z,4.17
2023-01-18T09:23:55.179Z,3.70
2023-01-18T09:26:22.560Z,3.87
2023-01-18T09:28:52.566Z,3.80
2023-01-18T09:31:26.584Z,3.57
2023-01-18T09:33:57.386Z,4.17
2023-01-18T09:36:28.149Z,4.20
2023-01-18T09:38:56.068Z,3.70
2023-01-18T09:41:35.302Z,3.57
2023-01-18T09:44:29.986Z,4.10
2023-01-18T09:47:07.190Z,3.23
2023-01-18T09:49:52.316Z,4.13
2023-01-18T09:52:43.500Z,3.80
2023-01-18T09:55:22.595Z,3.20
2023-01-18T09:58:01.613Z,3.23
2023-01-18T10:00:32.246Z,4.20
2023-01-18T10:03:14.402Z,3.13
2023-01-18T10:06:08.626Z,3.07
2023-01-18T10:08:50.047Z,2.87
2023-01-18T10:11:30.231Z,3.43
2023-01-18T10:14:11.546Z,3.57
2023-01-18T10:16:38.837Z,4.50
2023-01-18T10:19:16.523Z,3.70
2023-01-18T10:21:59.866Z,3.90
2023-01-18T10:24:46.503Z,3.37
2023-01-18T10:27:37.964Z,3.37
2023-01-18T10:30:11.229Z,3.83
2023-01-18T10:32:39.488Z,3.77
2023-01-18T10:35:23.013Z,3.57
2023-01-18T10:37:50.808Z,3.63
2023-01-18T10:40:18.127Z,3.77
2023-01-18T10:42:51.132Z,3.63
2023-01-18T10:45:22.686Z,3.97
2023-01-18T10:47:53.469Z,3.53
2023-01-18T10:50:24.681Z,3.70
2023-01-18T10:52:51.693Z,3.73
2023-01-18T10:55:20.153Z,4.13
2023-01-18T10:57:53.539Z,4.23
2023-01-18T11:00:33.704Z,3.43
2023-01-18T11:03:02.965Z,4.03
2023-01-18T11:05:32.706Z,3.83
2023-01-18T11:08:18.409Z,4.30
2023-01-18T11:10:46.048Z,3.93
2023-01-18T11:13:40.083Z,4.40
2023-01-18T11:16:17.611Z,3.90
2023-01-18T11:19:20.353Z,4.47
2023-01-18T11:21:51.967Z,4.43
2023-01-18T11:24:24.887Z,3.93
2023-01-18T11:26:56.572Z,3.97
2023-01-18T11:29:45.178Z,4.40
2023-01-18T11:32:25.206Z,4.70
2023-01-18T11:34:54.451Z,5.60
2023-01-18T11:37:38.383Z,4.60
2023-01-18T11:40:26.750Z,4.13
2023-01-18T11:42:59.663Z,5.37
2023-01-18T11:45:36.467Z,4.90
2023-01-18T11:48:13.009Z,4.63
2023-01-18T11:51:22.640Z,5.00
2023-01-18T11:54:39.799Z,4.10
2023-01-18T11:57:10.359Z,5.37
2023-01-18T11:59:45.643Z,5.03
2023-01-18T12:02:30.956Z,4.60
2023-01-18T12:05:01.211Z,5.13
2023-01-18T12:07:54.587Z,4.83
2023-01-18T12:10:27.704Z,3.93
2023-01-18T12:13:16.751Z,4.33
2023-01-18T12:16:12.647Z,3.43
2023-01-18T12:18:51.294Z,3.27
2023-01-18T12:21:49.687Z,4.40
2023-01-18T12:24:30.064Z,3.07
2023-01-18T12:27:21.203Z,3.70
2023-01-18T12:29:57.472Z,3.30
2023-01-18T12:32:42.577Z,3.13
2023-01-18T12:35:32.758Z,3.10
2023-01-18T12:38:28.419Z,3.40
2023-01-18T12:41:37.115Z,3.40
2023-01-18T12:44:30.605Z,4.27
2023-01-18T12:46:59.362Z,4.43
2023-01-18T12:49:29.373Z,3.97
2023-01-18T12:52:17.361Z,3.60
2023-01-18T12:54:51.986Z,3.53
2023-01-18T12:57:20.693Z,4.00
2023-01-18T12:59:50.910Z,3.20
2023-01-18T13:02:37.374Z,4.13
2023-01-18T13:05:20.033Z,4.03
2023-01-18T13:07:54.343Z,3.53
2023-01-18T13:10:24.473Z,3.77
2023-01-18T13:12:53.325Z,3.50
2023-01-18T13:15:35.254Z,4.20
2023-01-18T13:18:10.456Z,4.00
2023-01-18T13:21:02.908Z,3.70
2023-01-18T13:23:49.459Z,3.80
2023-01-18T13:26:37.499Z,4.43
2023-01-18T13:29:10.381Z,5.17
2023-01-18T13:31:38.311Z,4.83
2023-01-18T13:34:17.580Z,4.50
2023-01-18T13:36:46.572Z,5.37
2023-01-18T13:39:19.227Z,4.93
2023-01-18T13:42:05.338Z,4.50
2023-01-18T13:44:42.816Z,4.07
2023-01-18T13:47:45.935Z,3.63
2023-01-18T13:50:39.494Z,3.50
2023-01-18T13:53:15.710Z,3.90
2023-01-18T13:56:23.258Z,4.30
2023-01-18T13:59:20.541Z,4.83
2023-01-18T14:01:48.999Z,5.20
2023-01-18T14:04:32.320Z,5.03
2023-01-18T14:07:03.388Z,5.87
2023-01-18T14:09:43.360Z,6.03
2023-01-18T14:12:11.903Z,6.57
2023-01-18T14:14:58.942Z,6.63
2023-01-18T14:17:26.780Z,6.20
2023-01-18T14:20:00.269Z,6.53
2023-01-18T14:23:07.043Z,7.67
2023-01-18T14:25:34.436Z,7.47
2023-01-18T14:28:09.130Z,6.10
2023-01-18T14:30:38.773Z,5.03
2023-01-18T14:33:32.787Z,6.10
2023-01-18T14:36:01.745Z,5.40
2023-01-18T14:38:30.168Z,5.27
2023-01-18T14:41:05.412Z,5.70
2023-01-18T14:43:41.716Z,6.03
2023-01-18T14:46:15.933Z,6.00
2023-01-18T14:48:53.362Z,6.73
2023-01-18T14:51:23.482Z,7.80
2023-01-18T14:53:55.156Z,8.13
2023-01-18T14:56:25.533Z,8.43
2023-01-18T14:59:13.698Z,8.13
2023-01-18T15:01:43.900Z,8.30
2023-01-18T15:04:27.341Z,7.70
2023-01-18T15:06:57.996Z,7.27
2023-01-18T15:09:28.281Z,7.33
2023-01-18T15:11:57.456Z,7.93
2023-01-18T15:14:31.636Z,7.33
2023-01-18T15:17:01.825Z,7.33
2023-01-18T15:19:41.247Z,7.67
2023-01-18T15:22:13.597Z,7.43
2023-01-18T15:24:43.303Z,7.90
2023-01-18T15:27:14.114Z,7.70
2023-01-18T15:29:46.108Z,7.40
2023-01-18T15:32:17.527Z,9.03
2023-01-18T15:34:46.691Z,9.87
2023-01-18T15:37:26.838Z,8.60
2023-01-18T15:40:04.428Z,9.87
2023-01-18T15:42:40.079Z,9.77
2023-01-18T15:45:18.943Z,11.53
2023-01-18T15:47:53.171Z,10.07
2023-01-18T15:50:22.753Z,8.63
2023-01-18T15:53:02.054Z,9.67
2023-01-18T15:55:31.782Z,8.33
2023-01-18T15:58:03.399Z,8.90
2023-01-18T16:00:43.967Z,10.07
2023-01-18T16:03:26.664Z,9.57
2023-01-18T16:05:57.738Z,9.37
2023-01-18T16:08:25.581Z,11.30
2023-01-18T16:10:57.280Z,9.50
2023-01-18T16:13:36.687Z,10.33
2023-01-18T16:16:27.001Z,8.87
2023-01-18T16:19:02.175Z,11.50
2023-01-18T16:21:41.764Z,11.57
2023-01-18T16:24:47.197Z,11.27
2023-01-18T16:27:20.153Z,11.83
2023-01-18T16:29:57.299Z,11.33
2023-01-18T16:32:30.022Z,12.47
2023-01-18T16:35:14.059Z,10.50
2023-01-18T16:37:42.029Z,12.13
2023-01-18T16:40:12.447Z,10.83
2023-01-18T16:42:59.761Z,12.03
2023-01-18T16:45:33.650Z,12.30
2023-01-18T16:48:01.253Z,10.97
2023-01-18T16:50:29.093Z,11.40
2023-01-18T16:52:56.171Z,11.13
2023-01-18T16:55:23.726Z,11.57
2023-01-18T16:57:51.806Z,12.20
2023-01-18T17:00:30.829Z,11.80
2023-01-18T17:02:57.934Z,12.43
2023-01-18T17:05:25.517Z,13.33
2023-01-18T17:07:52.810Z,12.40
2023-01-18T17:10:39.349Z,14.40
2023-01-18T17:13:07.179Z,12.93
2023-01-18T17:15:34.922Z,13.50
2023-01-18T17:18:03.125Z,12.87
2023-01-18T17:20:31.540Z,13.03
2023-01-18T17:22:59.105Z,12.30
2023-01-18T17:25:26.802Z,13.67
2023-01-18T17:27:56.070Z,13.97
2023-01-18T17:30:23.475Z,14.57
2023-01-18T17:32:50.598Z,14.30
2023-01-18T17:35:21.929Z,14.77
2023-01-18T17:37:54.491Z,17.97
2023-01-18T17:40:39.313Z,15.77
2023-01-18T17:43:07.992Z,13.33
2023-01-18T17:45:35.296Z,16.07
2023-01-18T17:48:02.267Z,15.37
2023-01-18T17:50:29.580Z,14.43
2023-01-18T17:52:56.812Z,16.67
2023-01-18T17:55:30.515Z,17.63
2023-01-18T17:57:57.682Z,15.80
2023-01-18T18:00:25.077Z,18.73
2023-01-18T18:02:53.648Z,14.90
2023-01-18T18:05:20.907Z,17.60
2023-01-18T18:07:49.565Z,16.73
2023-01-18T18:10:17.301Z,17.00
2023-01-18T18:12:44.368Z,16.50
2023-01-18T18:15:11.847Z,15.53
2023-01-18T18:17:38.766Z,17.57
2023-01-18T18:20:10.790Z,16.50
2023-01-18T18:22:38.478Z,15.60
2023-01-18T18:25:07.295Z,17.57
2023-01-18T18:27:45.448Z,15.87
2023-01-18T18:30:13.427Z,17.53
2023-01-18T18:32:40.368Z,16.27
2023-01-18T18:35:23.103Z,17.30
2023-01-18T18:37:51.809Z,16.87
2023-01-18T18:40:19.337Z,16.97
2023-01-18T18:42:56.461Z,18.03
2023-01-18T18:45:29.712Z,16.77
2023-01-18T18:47:56.659Z,18.83
2023-01-18T18:50:23.947Z,19.37
2023-01-18T18:52:50.899Z,17.47
2023-01-18T18:55:18.506Z,18.33
2023-01-18T18:57:45.717Z,20.73
2023-01-18T19:00:13.876Z,21.07
2023-01-18T19:02:40.898Z,18.80
2023-01-18T19:05:08.696Z,18.33
2023-01-18T19:07:35.955Z,17.80
2023-01-18T19:10:05.025Z,19.53
2023-01-18T19:12:32.308Z,19.67
2023-01-18T19:14:59.662Z,19.53
2023-01-18T19:17:30.841Z,19.80
2023-01-18T19:19:58.767Z,19.43
2023-01-18T19:22:26.295Z,20.73
2023-01-18T19:24:53.550Z,20.80
2023-01-18T19:27:21.853Z,19.63
2023-01-18T19:29:49.098Z,21.37
2023-01-18T19:32:16.254Z,21.37
2023-01-18T19:34:43.568Z,24.13
2023-01-18T19:37:10.537Z,21.87
2023-01-18T19:39:38.202Z,26.37
2023-01-18T19:42:06.892Z,20.27
2023-01-18T19:44:34.319Z,22.27
2023-01-18T19:47:01.534Z,25.17
2023-01-18T19:49:29.090Z,22.07
2023-01-18T19:51:56.081Z,21.57
2023-01-18T19:54:23.451Z,22.93
2023-01-18T19:56:51.417Z,20.73
2023-01-18T19:59:18.756Z,21.73
2023-01-18T20:01:46.361Z,22.07
2023-01-18T20:04:13.827Z,21.10
2023-01-18T20:06:43.350Z,21.60
2023-01-18T20:09:19.635Z,21.33
2023-01-18T20:11:48.344Z,22.67
2023-01-18T20:14:15.714Z,23.07
2023-01-18T20:16:44.918Z,24.27
2023-01-18T20:19:14.818Z,22.73
2023-01-18T20:21:41.919Z,22.23
2023-01-18T20:24:09.826Z,22.47
2023-01-18T20:26:41.774Z,23.37
2023-01-18T20:29:09.675Z,19.87
2023-01-18T20:31:38.359Z,21.43
2023-01-18T20:34:06.792Z,20.13
2023-01-18T20:36:37.637Z,21.30
2023-01-18T20:39:05.645Z,19.27
2023-01-18T20:41:32.702Z,19.53
2023-01-18T20:44:00.005Z,21.40
2023-01-18T20:46:26.995Z,18.83
2023-01-18T20:48:54.240Z,19.80
2023-01-18T20:51:21.251Z,19.10
2023-01-18T20:53:48.584Z,18.50
2023-01-18T20:56:28.355Z,18.87
2023-01-18T20:58:58.097Z,18.90
2023-01-18T21:01:31.559Z,18.93
2023-01-18T21:04:00.451Z,18.13
2023-01-18T21:06:27.452Z,18.40
2023-01-18T21:08:56.503Z,17.93
2023-01-18T21:11:25.457Z,18.23
2023-01-18T21:13:54.119Z,19.17
2023-01-18T21:16:22.079Z,19.43
2023-01-18T21:18:52.710Z,20.00
2023-01-18T21:21:20.853Z,17.33
2023-01-18T21:23:48.141Z,20.20
2023-01-18T21:26:15.421Z,16.37
2023-01-18T21:28:42.703Z,17.87
2023-01-18T21:31:09.672Z,17.20
2023-01-18T21:33:37.539Z,17.83
2023-01-18T21:36:06.525Z,18.17
2023-01-18T21:38:33.846Z,18.17
2023-01-18T21:41:21.091Z,19.50
2023-01-18T21:44:07.138Z,17.83
2023-01-18T21:46:34.450Z,17.20
2023-01-18T21:49:03.143Z,15.90
2023-01-18T21:51:49.416Z,17.20
2023-01-18T21:54:17.073Z,18.33
2023-01-18T21:56:45.422Z,17.37
2023-01-18T21:59:13.746Z,17.63
2023-01-18T22:01:43.358Z,18.33
2023-01-18T22:04:31.400Z,18.80
2023-01-18T22:06:59.503Z,17.23
2023-01-18T22:09:28.144Z,18.80
2023-01-18T22:11:59.637Z,16.70
2023-01-18T22:14:27.051Z,17.60
2023-01-18T22:16:54.119Z,18.77
2023-01-18T22:19:21.357Z,19.00
2023-01-18T22:21:49.388Z,18.73
2023-01-18T22:24:17.988Z,18.27
2023-01-18T22:26:45.985Z,18.50
2023-01-18T22:29:13.858Z,18.50
2023-01-18T22:31:41.279Z,17.97
2023-01-18T22:34:09.683Z,18.57
2023-01-18T22:36:36.776Z,17.77
2023-01-18T22:39:04.094Z,17.80
2023-01-18T22:41:31.181Z,19.20
2023-01-18T22:43:58.432Z,17.97
2023-01-18T22:46:25.826Z,16.53
2023-01-18T22:48:53.057Z,16.67
2023-01-18T22:51:24.021Z,17.63
2023-01-18T22:53:52.090Z,17.03
2023-01-18T22:56:20.812Z,15.77
2023-01-18T22:58:49.010Z,17.20
2023-01-18T23:01:21.230Z,16.90
2023-01-18T23:03:53.064Z,16.77
2023-01-18T23:06:21.009Z,19.27
2023-01-18T23:08:48.862Z,19.77
2023-01-18T23:11:21.985Z,16.87
2023-01-18T23:14:11.171Z,16.23
2023-01-18T23:16:56.967Z,17.63
2023-01-18T23:19:25.088Z,17.57
2023-01-18T23:21:53.249Z,18.23
2023-01-18T23:24:21.313Z,18.63
2023-01-18T23:26:49.107Z,16.33
2023-01-18T23:29:16.904Z,16.90
2023-01-18T23:31:43.855Z,18.27
2023-01-18T23:34:11.220Z,16.70
2023-01-18T23:36:38.825Z,19.17
2023-01-18T23:39:24.593Z,17.07
2023-01-18T23:42:09.989Z,16.87
2023-01-18T23:44:56.001Z,19.27
2023-01-18T23:47:41.779Z,16.73
2023-01-18T23:50:28.318Z,18.07
2023-01-18T23:53:14.133Z,19.70
2023-01-18T23:55:41.524Z,17.57
2023-01-18T23:58:08.475Z,18.23
